sensor_id;sensor_type;location;lat;lon;timestamp;P1;durP1;ratioP1;P2;durP2;ratioP2
43088;SDS011;28709;52.030;5.652;2023-02-11T00:00:02;27.63;;;7.35;;
43088;SDS011;28709;52.030;5.652;2023-02-11T00:02:30;20.40;;;6.53;;
43088;SDS011;28709;52.030;5.652;2023-02-11T00:04:56;21.35;;;6.70;;
43088;SDS011;28709;52.030;5.652;2023-02-11T00:07:22;20.52;;;6.95;;
43088;SDS011;28709;52.030;5.652;2023-02-11T00:09:47;16.20;;;5.78;;
43088;SDS011;28709;52.030;5.652;2023-02-11T00:12:13;20.23;;;5.07;;
43088;SDS011;28709;52.030;5.652;2023-02-11T00:14:39;17.65;;;5.32;;
43088;SDS011;28709;52.030;5.652;2023-02-11T00:17:05;20.67;;;6.18;;
43088;SDS011;28709;52.030;5.652;2023-02-11T00:19:31;24.25;;;6.68;;
43088;SDS011;28709;52.030;5.652;2023-02-11T00:21:56;17.45;;;5.07;;
43088;SDS011;28709;52.030;5.652;2023-02-11T00:24:22;18.02;;;5.10;;
43088;SDS011;28709;52.030;5.652;2023-02-11T00:26:48;15.30;;;5.00;;
43088;SDS011;28709;52.030;5.652;2023-02-11T00:29:13;17.10;;;5.53;;
43088;SDS011;28709;52.030;5.652;2023-02-11T00:31:39;17.55;;;5.60;;
43088;SDS011;28709;52.030;5.652;2023-02-11T00:34:05;21.20;;;5.88;;
43088;SDS011;28709;52.030;5.652;2023-02-11T00:36:30;16.98;;;5.45;;
43088;SDS011;28709;52.030;5.652;2023-02-11T00:38:56;25.08;;;5.75;;
43088;SDS011;28709;52.030;5.652;2023-02-11T00:41:23;20.27;;;5.78;;
43088;SDS011;28709;52.030;5.652;2023-02-11T00:43:50;25.40;;;6.05;;
43088;SDS011;28709;52.030;5.652;2023-02-11T00:46:16;13.02;;;5.63;;
43088;SDS011;28709;52.030;5.652;2023-02-11T00:48:42;14.88;;;4.20;;
43088;SDS011;28709;52.030;5.652;2023-02-11T00:51:08;17.98;;;6.07;;
43088;SDS011;28709;52.030;5.652;2023-02-11T00:53:34;26.75;;;6.28;;
43088;SDS011;28709;52.030;5.652;2023-02-11T00:56:00;20.70;;;5.18;;
43088;SDS011;28709;52.030;5.652;2023-02-11T00:58:26;19.73;;;5.60;;
43088;SDS011;28709;52.030;5.652;2023-02-11T01:00:52;16.50;;;4.63;;
43088;SDS011;28709;52.030;5.652;2023-02-11T01:03:18;20.60;;;5.22;;
43088;SDS011;28709;52.030;5.652;2023-02-11T01:05:44;15.32;;;5.32;;
43088;SDS011;28709;52.030;5.652;2023-02-11T01:08:10;19.25;;;4.65;;
43088;SDS011;28709;52.030;5.652;2023-02-11T01:10:35;13.20;;;4.63;;
43088;SDS011;28709;52.030;5.652;2023-02-11T01:13:01;15.55;;;5.20;;
43088;SDS011;28709;52.030;5.652;2023-02-11T01:15:27;23.73;;;5.90;;
43088;SDS011;28709;52.030;5.652;2023-02-11T01:17:53;20.90;;;5.05;;
43088;SDS011;28709;52.030;5.652;2023-02-11T01:20:20;23.02;;;5.75;;
43088;SDS011;28709;52.030;5.652;2023-02-11T01:22:49;16.75;;;4.95;;
43088;SDS011;28709;52.030;5.652;2023-02-11T01:25:15;20.67;;;4.22;;
43088;SDS011;28709;52.030;5.652;2023-02-11T01:27:41;15.18;;;4.05;;
43088;SDS011;28709;52.030;5.652;2023-02-11T01:30:07;22.05;;;4.93;;
43088;SDS011;28709;52.030;5.652;2023-02-11T01:32:34;14.25;;;4.88;;
43088;SDS011;28709;52.030;5.652;2023-02-11T01:35:00;14.57;;;4.90;;
43088;SDS011;28709;52.030;5.652;2023-02-11T01:37:26;16.35;;;4.65;;
43088;SDS011;28709;52.030;5.652;2023-02-11T01:39:52;26.35;;;5.55;;
43088;SDS011;28709;52.030;5.652;2023-02-11T01:42:18;11.82;;;4.13;;
43088;SDS011;28709;52.030;5.652;2023-02-11T01:44:48;16.95;;;4.40;;
43088;SDS011;28709;52.030;5.652;2023-02-11T01:47:15;18.58;;;5.07;;
43088;SDS011;28709;52.030;5.652;2023-02-11T01:49:43;14.05;;;3.80;;
43088;SDS011;28709;52.030;5.652;2023-02-11T01:54:48;16.73;;;4.80;;
43088;SDS011;28709;52.030;5.652;2023-02-11T01:57:36;15.38;;;4.22;;
43088;SDS011;28709;52.030;5.652;2023-02-11T02:08:35;12.55;;;3.67;;
43088;SDS011;28709;52.030;5.652;2023-02-11T02:11:06;15.48;;;4.25;;
43088;SDS011;28709;52.030;5.652;2023-02-11T02:13:33;13.48;;;4.25;;
43088;SDS011;28709;52.030;5.652;2023-02-11T02:16:01;24.38;;;4.85;;
43088;SDS011;28709;52.030;5.652;2023-02-11T02:21:19;13.45;;;3.65;;
43088;SDS011;28709;52.030;5.652;2023-02-11T02:26:50;15.95;;;4.43;;
43088;SDS011;28709;52.030;5.652;2023-02-11T02:37:47;16.17;;;4.30;;
43088;SDS011;28709;52.030;5.652;2023-02-11T02:40:31;13.30;;;4.95;;
43088;SDS011;28709;52.030;5.652;2023-02-11T02:43:04;15.60;;;4.55;;
43088;SDS011;28709;52.030;5.652;2023-02-11T02:45:31;24.45;;;5.00;;
43088;SDS011;28709;52.030;5.652;2023-02-11T02:47:57;19.17;;;5.13;;
43088;SDS011;28709;52.030;5.652;2023-02-11T02:50:24;15.27;;;4.93;;
43088;SDS011;28709;52.030;5.652;2023-02-11T02:55:57;17.55;;;4.95;;
43088;SDS011;28709;52.030;5.652;2023-02-11T03:01:27;11.60;;;4.07;;
43088;SDS011;28709;52.030;5.652;2023-02-11T03:04:21;24.85;;;5.15;;
43088;SDS011;28709;52.030;5.652;2023-02-11T03:10:27;16.38;;;4.85;;
43088;SDS011;28709;52.030;5.652;2023-02-11T03:13:03;24.23;;;4.82;;
43088;SDS011;28709;52.030;5.652;2023-02-11T03:15:31;14.85;;;4.90;;
43088;SDS011;28709;52.030;5.652;2023-02-11T03:18:01;15.52;;;5.50;;
43088;SDS011;28709;52.030;5.652;2023-02-11T03:20:29;14.98;;;5.22;;
43088;SDS011;28709;52.030;5.652;2023-02-11T03:25:49;24.33;;;5.85;;
43088;SDS011;28709;52.030;5.652;2023-02-11T03:30:52;20.25;;;6.10;;
43088;SDS011;28709;52.030;5.652;2023-02-11T03:33:47;20.30;;;5.78;;
43088;SDS011;28709;52.030;5.652;2023-02-11T03:36:21;12.50;;;5.75;;
43088;SDS011;28709;52.030;5.652;2023-02-11T03:38:55;20.58;;;6.30;;
43088;SDS011;28709;52.030;5.652;2023-02-11T03:41:23;14.20;;;6.10;;
43088;SDS011;28709;52.030;5.652;2023-02-11T03:43:51;30.90;;;6.53;;
43088;SDS011;28709;52.030;5.652;2023-02-11T03:46:20;25.27;;;6.97;;
43088;SDS011;28709;52.030;5.652;2023-02-11T03:48:50;18.83;;;5.88;;
43088;SDS011;28709;52.030;5.652;2023-02-11T03:51:19;20.98;;;6.80;;
43088;SDS011;28709;52.030;5.652;2023-02-11T03:53:47;11.82;;;5.63;;
43088;SDS011;28709;52.030;5.652;2023-02-11T03:56:16;23.85;;;7.75;;
43088;SDS011;28709;52.030;5.652;2023-02-11T03:58:46;17.30;;;6.50;;
43088;SDS011;28709;52.030;5.652;2023-02-11T04:01:12;18.42;;;5.93;;
43088;SDS011;28709;52.030;5.652;2023-02-11T04:03:38;19.05;;;6.93;;
43088;SDS011;28709;52.030;5.652;2023-02-11T04:06:04;16.60;;;6.00;;
43088;SDS011;28709;52.030;5.652;2023-02-11T04:08:31;22.17;;;8.18;;
43088;SDS011;28709;52.030;5.652;2023-02-11T04:10:56;15.55;;;6.85;;
43088;SDS011;28709;52.030;5.652;2023-02-11T04:13:24;31.38;;;8.32;;
43088;SDS011;28709;52.030;5.652;2023-02-11T04:15:51;27.23;;;8.30;;
43088;SDS011;28709;52.030;5.652;2023-02-11T04:18:16;19.73;;;8.77;;
43088;SDS011;28709;52.030;5.652;2023-02-11T04:20:42;20.95;;;8.10;;
43088;SDS011;28709;52.030;5.652;2023-02-11T04:23:08;24.13;;;8.55;;
43088;SDS011;28709;52.030;5.652;2023-02-11T04:25:34;14.10;;;6.13;;
43088;SDS011;28709;52.030;5.652;2023-02-11T04:28:00;24.13;;;8.25;;
43088;SDS011;28709;52.030;5.652;2023-02-11T04:30:26;26.02;;;8.60;;
43088;SDS011;28709;52.030;5.652;2023-02-11T04:32:52;16.48;;;7.60;;
43088;SDS011;28709;52.030;5.652;2023-02-11T04:35:18;20.92;;;7.85;;
43088;SDS011;28709;52.030;5.652;2023-02-11T04:37:44;20.45;;;7.68;;
43088;SDS011;28709;52.030;5.652;2023-02-11T04:40:10;21.20;;;7.68;;
43088;SDS011;28709;52.030;5.652;2023-02-11T04:42:35;28.27;;;8.23;;
43088;SDS011;28709;52.030;5.652;2023-02-11T04:45:01;19.42;;;6.78;;
43088;SDS011;28709;52.030;5.652;2023-02-11T04:47:27;25.95;;;9.40;;
43088;SDS011;28709;52.030;5.652;2023-02-11T04:49:53;27.63;;;8.93;;
43088;SDS011;28709;52.030;5.652;2023-02-11T04:52:18;16.23;;;8.02;;
43088;SDS011;28709;52.030;5.652;2023-02-11T04:54:44;23.38;;;7.75;;
43088;SDS011;28709;52.030;5.652;2023-02-11T04:57:09;21.58;;;8.95;;
43088;SDS011;28709;52.030;5.652;2023-02-11T04:59:35;21.63;;;8.32;;
43088;SDS011;28709;52.030;5.652;2023-02-11T05:02:01;20.75;;;8.30;;
43088;SDS011;28709;52.030;5.652;2023-02-11T05:04:28;20.17;;;8.55;;
43088;SDS011;28709;52.030;5.652;2023-02-11T05:06:53;19.92;;;7.60;;
43088;SDS011;28709;52.030;5.652;2023-02-11T05:09:19;21.10;;;9.35;;
43088;SDS011;28709;52.030;5.652;2023-02-11T05:11:45;20.60;;;8.43;;
43088;SDS011;28709;52.030;5.652;2023-02-11T05:14:12;22.85;;;8.45;;
43088;SDS011;28709;52.030;5.652;2023-02-11T05:16:37;29.45;;;8.82;;
43088;SDS011;28709;52.030;5.652;2023-02-11T05:19:03;20.85;;;8.20;;
43088;SDS011;28709;52.030;5.652;2023-02-11T05:21:29;18.90;;;8.00;;
43088;SDS011;28709;52.030;5.652;2023-02-11T05:23:55;15.98;;;8.10;;
43088;SDS011;28709;52.030;5.652;2023-02-11T05:26:20;25.00;;;9.77;;
43088;SDS011;28709;52.030;5.652;2023-02-11T05:28:46;18.52;;;8.75;;
43088;SDS011;28709;52.030;5.652;2023-02-11T05:31:11;16.55;;;8.13;;
43088;SDS011;28709;52.030;5.652;2023-02-11T05:33:38;26.63;;;9.35;;
43088;SDS011;28709;52.030;5.652;2023-02-11T05:36:05;19.90;;;8.70;;
43088;SDS011;28709;52.030;5.652;2023-02-11T05:38:32;18.52;;;8.73;;
43088;SDS011;28709;52.030;5.652;2023-02-11T05:40:59;23.17;;;9.15;;
43088;SDS011;28709;52.030;5.652;2023-02-11T05:43:25;22.40;;;9.98;;
43088;SDS011;28709;52.030;5.652;2023-02-11T05:45:50;25.42;;;10.43;;
43088;SDS011;28709;52.030;5.652;2023-02-11T05:48:16;22.02;;;9.60;;
43088;SDS011;28709;52.030;5.652;2023-02-11T05:50:42;22.00;;;9.30;;
43088;SDS011;28709;52.030;5.652;2023-02-11T05:53:08;26.20;;;9.98;;
43088;SDS011;28709;52.030;5.652;2023-02-11T05:55:34;22.05;;;10.40;;
43088;SDS011;28709;52.030;5.652;2023-02-11T05:57:59;28.98;;;11.50;;
43088;SDS011;28709;52.030;5.652;2023-02-11T06:00:25;30.40;;;10.85;;
43088;SDS011;28709;52.030;5.652;2023-02-11T06:02:51;27.58;;;11.27;;
43088;SDS011;28709;52.030;5.652;2023-02-11T06:05:17;32.13;;;10.85;;
43088;SDS011;28709;52.030;5.652;2023-02-11T06:07:43;22.80;;;9.95;;
43088;SDS011;28709;52.030;5.652;2023-02-11T06:10:08;21.63;;;9.38;;
43088;SDS011;28709;52.030;5.652;2023-02-11T06:12:35;27.35;;;10.63;;
43088;SDS011;28709;52.030;5.652;2023-02-11T06:15:02;27.27;;;11.00;;
43088;SDS011;28709;52.030;5.652;2023-02-11T06:17:28;39.72;;;12.40;;
43088;SDS011;28709;52.030;5.652;2023-02-11T06:19:57;26.38;;;10.15;;
43088;SDS011;28709;52.030;5.652;2023-02-11T06:22:25;25.85;;;10.82;;
43088;SDS011;28709;52.030;5.652;2023-02-11T06:24:50;33.78;;;11.45;;
43088;SDS011;28709;52.030;5.652;2023-02-11T06:27:16;26.50;;;9.88;;
43088;SDS011;28709;52.030;5.652;2023-02-11T06:29:43;22.83;;;10.70;;
43088;SDS011;28709;52.030;5.652;2023-02-11T06:32:10;32.60;;;11.25;;
43088;SDS011;28709;52.030;5.652;2023-02-11T06:34:36;22.70;;;10.45;;
43088;SDS011;28709;52.030;5.652;2023-02-11T06:37:02;27.65;;;11.48;;
43088;SDS011;28709;52.030;5.652;2023-02-11T06:39:28;26.13;;;11.95;;
43088;SDS011;28709;52.030;5.652;2023-02-11T06:41:53;30.48;;;12.30;;
43088;SDS011;28709;52.030;5.652;2023-02-11T06:44:19;18.98;;;9.70;;
43088;SDS011;28709;52.030;5.652;2023-02-11T06:46:45;21.92;;;10.35;;
43088;SDS011;28709;52.030;5.652;2023-02-11T06:49:10;25.75;;;11.05;;
43088;SDS011;28709;52.030;5.652;2023-02-11T06:51:37;22.52;;;10.70;;
43088;SDS011;28709;52.030;5.652;2023-02-11T06:54:03;35.47;;;13.05;;
43088;SDS011;28709;52.030;5.652;2023-02-11T06:56:30;40.95;;;15.15;;
43088;SDS011;28709;52.030;5.652;2023-02-11T06:58:57;24.75;;;12.07;;
43088;SDS011;28709;52.030;5.652;2023-02-11T07:01:23;27.60;;;12.13;;
43088;SDS011;28709;52.030;5.652;2023-02-11T07:03:50;24.95;;;12.02;;
43088;SDS011;28709;52.030;5.652;2023-02-11T07:06:18;32.47;;;12.95;;
43088;SDS011;28709;52.030;5.652;2023-02-11T07:08:45;21.67;;;11.63;;
43088;SDS011;28709;52.030;5.652;2023-02-11T07:11:13;32.75;;;14.50;;
43088;SDS011;28709;52.030;5.652;2023-02-11T07:13:48;30.80;;;14.55;;
43088;SDS011;28709;52.030;5.652;2023-02-11T07:16:15;30.48;;;13.63;;
43088;SDS011;28709;52.030;5.652;2023-02-11T07:18:42;30.17;;;12.60;;
43088;SDS011;28709;52.030;5.652;2023-02-11T07:21:10;32.95;;;14.02;;
43088;SDS011;28709;52.030;5.652;2023-02-11T07:23:37;29.38;;;13.25;;
43088;SDS011;28709;52.030;5.652;2023-02-11T07:26:05;31.38;;;13.23;;
43088;SDS011;28709;52.030;5.652;2023-02-11T07:28:33;27.20;;;13.20;;
43088;SDS011;28709;52.030;5.652;2023-02-11T07:30:59;35.10;;;15.07;;
43088;SDS011;28709;52.030;5.652;2023-02-11T07:33:29;31.90;;;13.15;;
43088;SDS011;28709;52.030;5.652;2023-02-11T07:35:58;28.15;;;13.23;;
43088;SDS011;28709;52.030;5.652;2023-02-11T07:38:24;27.65;;;12.70;;
43088;SDS011;28709;52.030;5.652;2023-02-11T07:40:50;48.70;;;16.98;;
43088;SDS011;28709;52.030;5.652;2023-02-11T07:43:16;43.28;;;14.98;;
43088;SDS011;28709;52.030;5.652;2023-02-11T07:45:41;28.48;;;14.50;;
43088;SDS011;28709;52.030;5.652;2023-02-11T07:48:07;31.80;;;15.38;;
43088;SDS011;28709;52.030;5.652;2023-02-11T07:50:32;39.15;;;15.70;;
43088;SDS011;28709;52.030;5.652;2023-02-11T07:52:58;31.67;;;14.18;;
43088;SDS011;28709;52.030;5.652;2023-02-11T07:55:24;35.42;;;14.38;;
43088;SDS011;28709;52.030;5.652;2023-02-11T07:57:49;44.78;;;17.40;;
43088;SDS011;28709;52.030;5.652;2023-02-11T08:00:15;42.95;;;16.10;;
43088;SDS011;28709;52.030;5.652;2023-02-11T08:02:41;37.42;;;16.55;;
43088;SDS011;28709;52.030;5.652;2023-02-11T08:05:07;32.83;;;15.68;;
43088;SDS011;28709;52.030;5.652;2023-02-11T08:07:33;34.10;;;15.35;;
43088;SDS011;28709;52.030;5.652;2023-02-11T08:09:58;32.92;;;14.48;;
43088;SDS011;28709;52.030;5.652;2023-02-11T08:12:24;52.28;;;18.42;;
43088;SDS011;28709;52.030;5.652;2023-02-11T08:14:50;40.10;;;16.88;;
43088;SDS011;28709;52.030;5.652;2023-02-11T08:17:15;41.05;;;16.73;;
43088;SDS011;28709;52.030;5.652;2023-02-11T08:19:41;39.60;;;17.30;;
43088;SDS011;28709;52.030;5.652;2023-02-11T08:22:07;30.08;;;15.10;;
43088;SDS011;28709;52.030;5.652;2023-02-11T08:24:32;31.38;;;16.73;;
43088;SDS011;28709;52.030;5.652;2023-02-11T08:26:58;41.55;;;16.48;;
43088;SDS011;28709;52.030;5.652;2023-02-11T08:29:24;41.83;;;15.90;;
43088;SDS011;28709;52.030;5.652;2023-02-11T08:31:49;33.00;;;16.55;;
43088;SDS011;28709;52.030;5.652;2023-02-11T08:34:15;44.33;;;18.33;;
43088;SDS011;28709;52.030;5.652;2023-02-11T08:36:44;47.88;;;19.10;;
43088;SDS011;28709;52.030;5.652;2023-02-11T08:39:12;33.13;;;15.05;;
43088;SDS011;28709;52.030;5.652;2023-02-11T08:41:40;48.67;;;17.80;;
43088;SDS011;28709;52.030;5.652;2023-02-11T08:44:05;35.95;;;17.90;;
43088;SDS011;28709;52.030;5.652;2023-02-11T08:46:31;43.83;;;18.70;;
43088;SDS011;28709;52.030;5.652;2023-02-11T08:48:57;48.30;;;18.73;;
43088;SDS011;28709;52.030;5.652;2023-02-11T08:51:24;34.38;;;16.02;;
43088;SDS011;28709;52.030;5.652;2023-02-11T08:53:52;35.42;;;17.10;;
43088;SDS011;28709;52.030;5.652;2023-02-11T08:56:19;35.75;;;17.25;;
43088;SDS011;28709;52.030;5.652;2023-02-11T08:58:45;32.85;;;16.38;;
43088;SDS011;28709;52.030;5.652;2023-02-11T09:01:12;38.95;;;17.50;;
43088;SDS011;28709;52.030;5.652;2023-02-11T09:03:39;32.70;;;16.05;;
43088;SDS011;28709;52.030;5.652;2023-02-11T09:06:05;35.05;;;17.33;;
43088;SDS011;28709;52.030;5.652;2023-02-11T09:08:33;30.08;;;14.48;;
43088;SDS011;28709;52.030;5.652;2023-02-11T09:11:00;31.67;;;15.55;;
43088;SDS011;28709;52.030;5.652;2023-02-11T09:13:26;32.83;;;16.98;;
43088;SDS011;28709;52.030;5.652;2023-02-11T09:15:51;39.08;;;17.00;;
43088;SDS011;28709;52.030;5.652;2023-02-11T09:18:17;34.55;;;17.65;;
43088;SDS011;28709;52.030;5.652;2023-02-11T09:20:42;34.75;;;17.15;;
43088;SDS011;28709;52.030;5.652;2023-02-11T09:23:08;36.42;;;17.17;;
43088;SDS011;28709;52.030;5.652;2023-02-11T09:25:34;34.17;;;17.52;;
43088;SDS011;28709;52.030;5.652;2023-02-11T09:28:02;41.67;;;18.38;;
43088;SDS011;28709;52.030;5.652;2023-02-11T09:30:28;37.30;;;17.35;;
43088;SDS011;28709;52.030;5.652;2023-02-11T09:32:53;33.78;;;16.83;;
43088;SDS011;28709;52.030;5.652;2023-02-11T09:35:19;38.05;;;18.23;;
43088;SDS011;28709;52.030;5.652;2023-02-11T09:37:45;35.42;;;17.63;;
43088;SDS011;28709;52.030;5.652;2023-02-11T09:40:11;33.38;;;16.95;;
43088;SDS011;28709;52.030;5.652;2023-02-11T09:45:22;36.22;;;16.92;;
43088;SDS011;28709;52.030;5.652;2023-02-11T09:47:53;31.10;;;16.00;;
43088;SDS011;28709;52.030;5.652;2023-02-11T09:50:29;34.75;;;17.05;;
43088;SDS011;28709;52.030;5.652;2023-02-11T09:53:00;40.85;;;18.30;;
43088;SDS011;28709;52.030;5.652;2023-02-11T09:55:31;35.40;;;18.10;;
43088;SDS011;28709;52.030;5.652;2023-02-11T09:58:09;27.45;;;14.40;;
43088;SDS011;28709;52.030;5.652;2023-02-11T10:06:14;31.48;;;17.45;;
43088;SDS011;28709;52.030;5.652;2023-02-11T10:11:28;36.17;;;17.98;;
43088;SDS011;28709;52.030;5.652;2023-02-11T10:19:50;27.70;;;14.90;;
43088;SDS011;28709;52.030;5.652;2023-02-11T10:22:31;31.98;;;16.45;;
43088;SDS011;28709;52.030;5.652;2023-02-11T10:25:05;30.60;;;14.93;;
43088;SDS011;28709;52.030;5.652;2023-02-11T10:27:42;29.98;;;15.63;;
43088;SDS011;28709;52.030;5.652;2023-02-11T10:30:18;23.40;;;13.57;;
43088;SDS011;28709;52.030;5.652;2023-02-11T10:32:50;25.20;;;13.45;;
43088;SDS011;28709;52.030;5.652;2023-02-11T10:35:23;24.05;;;13.23;;
43088;SDS011;28709;52.030;5.652;2023-02-11T10:37:51;23.45;;;12.98;;
43088;SDS011;28709;52.030;5.652;2023-02-11T10:40:28;28.27;;;14.52;;
43088;SDS011;28709;52.030;5.652;2023-02-11T10:43:00;31.67;;;14.45;;
43088;SDS011;28709;52.030;5.652;2023-02-11T10:53:34;25.60;;;14.30;;
43088;SDS011;28709;52.030;5.652;2023-02-11T10:56:01;26.30;;;13.88;;
43088;SDS011;28709;52.030;5.652;2023-02-11T11:00:58;24.52;;;12.75;;
43088;SDS011;28709;52.030;5.652;2023-02-11T11:03:25;24.80;;;15.40;;
43088;SDS011;28709;52.030;5.652;2023-02-11T11:06:00;28.02;;;13.85;;
43088;SDS011;28709;52.030;5.652;2023-02-11T11:11:09;30.15;;;18.88;;
43088;SDS011;28709;52.030;5.652;2023-02-11T11:13:38;27.98;;;16.90;;
43088;SDS011;28709;52.030;5.652;2023-02-11T11:16:31;22.88;;;12.77;;
43088;SDS011;28709;52.030;5.652;2023-02-11T11:27:23;15.50;;;9.48;;
43088;SDS011;28709;52.030;5.652;2023-02-11T11:29:52;18.27;;;11.43;;
43088;SDS011;28709;52.030;5.652;2023-02-11T11:32:23;15.85;;;10.02;;
43088;SDS011;28709;52.030;5.652;2023-02-11T11:34:59;20.33;;;11.45;;
43088;SDS011;28709;52.030;5.652;2023-02-11T11:37:33;18.77;;;10.27;;
43088;SDS011;28709;52.030;5.652;2023-02-11T11:40:08;14.52;;;9.52;;
43088;SDS011;28709;52.030;5.652;2023-02-11T11:42:34;16.83;;;10.00;;
43088;SDS011;28709;52.030;5.652;2023-02-11T11:45:25;18.65;;;9.95;;
43088;SDS011;28709;52.030;5.652;2023-02-11T11:50:34;21.67;;;11.23;;
43088;SDS011;28709;52.030;5.652;2023-02-11T11:58:00;18.35;;;9.60;;
43088;SDS011;28709;52.030;5.652;2023-02-11T12:00:28;16.20;;;9.85;;
43088;SDS011;28709;52.030;5.652;2023-02-11T12:16:42;13.10;;;7.90;;
43088;SDS011;28709;52.030;5.652;2023-02-11T12:22:26;16.23;;;7.47;;
43088;SDS011;28709;52.030;5.652;2023-02-11T12:27:44;19.13;;;8.05;;
43088;SDS011;28709;52.030;5.652;2023-02-11T12:30:37;14.15;;;7.63;;
43088;SDS011;28709;52.030;5.652;2023-02-11T12:38:45;11.30;;;6.10;;
43088;SDS011;28709;52.030;5.652;2023-02-11T12:41:47;11.43;;;5.65;;
43088;SDS011;28709;52.030;5.652;2023-02-11T12:50:09;9.27;;;6.70;;
43088;SDS011;28709;52.030;5.652;2023-02-11T12:52:44;12.50;;;6.80;;
43088;SDS011;28709;52.030;5.652;2023-02-11T12:55:25;9.48;;;6.97;;
43088;SDS011;28709;52.030;5.652;2023-02-11T12:57:55;13.07;;;6.30;;
43088;SDS011;28709;52.030;5.652;2023-02-11T13:00:44;12.20;;;5.90;;
43088;SDS011;28709;52.030;5.652;2023-02-11T13:03:23;15.50;;;7.78;;
43088;SDS011;28709;52.030;5.652;2023-02-11T13:06:16;9.98;;;6.05;;
43088;SDS011;28709;52.030;5.652;2023-02-11T13:08:47;12.35;;;6.32;;
43088;SDS011;28709;52.030;5.652;2023-02-11T13:11:19;15.05;;;6.70;;
43088;SDS011;28709;52.030;5.652;2023-02-11T13:16:26;10.85;;;6.57;;
43088;SDS011;28709;52.030;5.652;2023-02-11T13:19:18;14.68;;;6.50;;
43088;SDS011;28709;52.030;5.652;2023-02-11T13:21:53;12.82;;;8.18;;
43088;SDS011;28709;52.030;5.652;2023-02-11T13:32:13;16.55;;;9.45;;
43088;SDS011;28709;52.030;5.652;2023-02-11T13:42:48;19.10;;;9.60;;
43088;SDS011;28709;52.030;5.652;2023-02-11T13:48:14;15.50;;;9.25;;
43088;SDS011;28709;52.030;5.652;2023-02-11T13:50:46;14.82;;;7.88;;
43088;SDS011;28709;52.030;5.652;2023-02-11T13:53:14;13.38;;;7.90;;
43088;SDS011;28709;52.030;5.652;2023-02-11T13:55:44;15.60;;;8.10;;
43088;SDS011;28709;52.030;5.652;2023-02-11T14:06:09;15.18;;;8.50;;
43088;SDS011;28709;52.030;5.652;2023-02-11T14:14:20;16.27;;;9.10;;
43088;SDS011;28709;52.030;5.652;2023-02-11T14:24:48;12.55;;;6.53;;
43088;SDS011;28709;52.030;5.652;2023-02-11T14:27:24;7.53;;;4.97;;
43088;SDS011;28709;52.030;5.652;2023-02-11T14:32:51;7.65;;;4.75;;
43088;SDS011;28709;52.030;5.652;2023-02-11T14:43:44;5.35;;;3.40;;
43088;SDS011;28709;52.030;5.652;2023-02-11T14:46:13;7.00;;;3.90;;
43088;SDS011;28709;52.030;5.652;2023-02-11T14:48:42;7.28;;;3.83;;
43088;SDS011;28709;52.030;5.652;2023-02-11T14:53:49;11.02;;;7.60;;
43088;SDS011;28709;52.030;5.652;2023-02-11T14:56:21;9.55;;;5.15;;
43088;SDS011;28709;52.030;5.652;2023-02-11T14:58:50;5.65;;;3.58;;
43088;SDS011;28709;52.030;5.652;2023-02-11T15:01:28;11.75;;;4.18;;
43088;SDS011;28709;52.030;5.652;2023-02-11T15:03:58;5.38;;;3.40;;
43088;SDS011;28709;52.030;5.652;2023-02-11T15:08:57;7.07;;;3.58;;
43088;SDS011;28709;52.030;5.652;2023-02-11T15:11:25;5.40;;;4.15;;
43088;SDS011;28709;52.030;5.652;2023-02-11T15:14:00;8.15;;;4.15;;
43088;SDS011;28709;52.030;5.652;2023-02-11T15:16:39;7.55;;;4.03;;
43088;SDS011;28709;52.030;5.652;2023-02-11T15:19:13;7.40;;;3.88;;
43088;SDS011;28709;52.030;5.652;2023-02-11T15:21:48;10.27;;;4.30;;
43088;SDS011;28709;52.030;5.652;2023-02-11T15:24:26;8.93;;;4.25;;
43088;SDS011;28709;52.030;5.652;2023-02-11T15:27:08;6.85;;;4.10;;
43088;SDS011;28709;52.030;5.652;2023-02-11T15:29:47;7.35;;;4.30;;
43088;SDS011;28709;52.030;5.652;2023-02-11T15:34:42;10.25;;;4.80;;
43088;SDS011;28709;52.030;5.652;2023-02-11T15:37:12;11.95;;;4.82;;
43088;SDS011;28709;52.030;5.652;2023-02-11T15:39:48;10.65;;;5.82;;
43088;SDS011;28709;52.030;5.652;2023-02-11T15:42:22;10.40;;;5.75;;
43088;SDS011;28709;52.030;5.652;2023-02-11T15:47:48;10.25;;;5.82;;
43088;SDS011;28709;52.030;5.652;2023-02-11T15:50:23;13.55;;;6.53;;
43088;SDS011;28709;52.030;5.652;2023-02-11T15:52:51;10.93;;;5.68;;
43088;SDS011;28709;52.030;5.652;2023-02-11T15:55:19;8.65;;;5.10;;
43088;SDS011;28709;52.030;5.652;2023-02-11T15:57:47;10.27;;;4.70;;
43088;SDS011;28709;52.030;5.652;2023-02-11T16:00:20;8.75;;;4.78;;
43088;SDS011;28709;52.030;5.652;2023-02-11T16:02:47;10.88;;;4.50;;
43088;SDS011;28709;52.030;5.652;2023-02-11T16:05:28;9.52;;;4.93;;
43088;SDS011;28709;52.030;5.652;2023-02-11T16:07:56;6.25;;;3.55;;
43088;SDS011;28709;52.030;5.652;2023-02-11T16:13:17;5.05;;;3.22;;
43088;SDS011;28709;52.030;5.652;2023-02-11T16:15:44;8.32;;;3.78;;
43088;SDS011;28709;52.030;5.652;2023-02-11T16:18:14;7.40;;;4.25;;
43088;SDS011;28709;52.030;5.652;2023-02-11T16:20:47;5.97;;;3.25;;
43088;SDS011;28709;52.030;5.652;2023-02-11T16:23:18;4.38;;;3.17;;
43088;SDS011;28709;52.030;5.652;2023-02-11T16:25:47;7.25;;;4.07;;
43088;SDS011;28709;52.030;5.652;2023-02-11T16:28:15;9.85;;;4.38;;
43088;SDS011;28709;52.030;5.652;2023-02-11T16:30:41;5.97;;;3.92;;
43088;SDS011;28709;52.030;5.652;2023-02-11T16:33:08;4.72;;;3.05;;
43088;SDS011;28709;52.030;5.652;2023-02-11T16:35:35;5.95;;;3.70;;
43088;SDS011;28709;52.030;5.652;2023-02-11T16:38:01;5.70;;;3.38;;
43088;SDS011;28709;52.030;5.652;2023-02-11T16:40:27;5.30;;;3.58;;
43088;SDS011;28709;52.030;5.652;2023-02-11T16:42:53;6.85;;;3.83;;
43088;SDS011;28709;52.030;5.652;2023-02-11T16:45:18;7.65;;;3.95;;
43088;SDS011;28709;52.030;5.652;2023-02-11T16:47:44;7.35;;;3.72;;
43088;SDS011;28709;52.030;5.652;2023-02-11T16:50:11;9.25;;;4.43;;
43088;SDS011;28709;52.030;5.652;2023-02-11T16:52:46;7.18;;;4.32;;
43088;SDS011;28709;52.030;5.652;2023-02-11T16:55:12;7.97;;;4.50;;
43088;SDS011;28709;52.030;5.652;2023-02-11T16:57:38;10.20;;;5.97;;
43088;SDS011;28709;52.030;5.652;2023-02-11T17:00:05;11.02;;;6.25;;
43088;SDS011;28709;52.030;5.652;2023-02-11T17:02:35;14.57;;;6.68;;
43088;SDS011;28709;52.030;5.652;2023-02-11T17:05:06;26.05;;;14.80;;
43088;SDS011;28709;52.030;5.652;2023-02-11T17:07:39;27.60;;;12.55;;
43088;SDS011;28709;52.030;5.652;2023-02-11T17:10:12;25.65;;;11.43;;
43088;SDS011;28709;52.030;5.652;2023-02-11T17:12:45;18.50;;;9.48;;
43088;SDS011;28709;52.030;5.652;2023-02-11T17:15:12;16.85;;;9.18;;
43088;SDS011;28709;52.030;5.652;2023-02-11T17:17:38;15.82;;;7.35;;
43088;SDS011;28709;52.030;5.652;2023-02-11T17:20:04;13.30;;;6.05;;
43088;SDS011;28709;52.030;5.652;2023-02-11T17:22:31;12.73;;;6.97;;
43088;SDS011;28709;52.030;5.652;2023-02-11T17:24:56;12.60;;;7.32;;
43088;SDS011;28709;52.030;5.652;2023-02-11T17:27:22;13.30;;;7.05;;
43088;SDS011;28709;52.030;5.652;2023-02-11T17:29:48;15.80;;;5.55;;
43088;SDS011;28709;52.030;5.652;2023-02-11T17:32:14;10.52;;;5.88;;
43088;SDS011;28709;52.030;5.652;2023-02-11T17:34:39;16.23;;;6.18;;
43088;SDS011;28709;52.030;5.652;2023-02-11T17:37:05;44.42;;;18.73;;
43088;SDS011;28709;52.030;5.652;2023-02-11T17:39:36;22.75;;;10.32;;
43088;SDS011;28709;52.030;5.652;2023-02-11T17:42:03;16.90;;;8.05;;
43088;SDS011;28709;52.030;5.652;2023-02-11T17:44:30;27.73;;;13.57;;